sensor_id;sensor_type;location;lat;lon;timestamp;temperature;humidity
46752;DHT22;32497;48.936;9.270;2024-01-16T00:02:27;-3276.00;78.20
46752;DHT22;32497;48.936;9.270;2024-01-16T00:07:28;-3276.00;77.50
46752;DHT22;32497;48.936;9.270;2024-01-16T00:12:29;-3275.80;79.10
46752;DHT22;32497;48.936;9.270;2024-01-16T00:17:32;-3275.90;78.60
46752;DHT22;32497;48.936;9.270;2024-01-16T00:22:33;-3275.90;78.10
46752;DHT22;32497;48.936;9.270;2024-01-16T00:27:34;-3275.70;79.30
46752;DHT22;32497;48.936;9.270;2024-01-16T00:32:37;-3275.80;78.80
46752;DHT22;32497;48.936;9.270;2024-01-16T00:37:38;-3275.70;79.50
46752;DHT22;32497;48.936;9.270;2024-01-16T00:42:39;-3275.70;78.90
46752;DHT22;32497;48.936;9.270;2024-01-16T00:47:41;-3275.80;78.40
46752;DHT22;32497;48.936;9.270;2024-01-16T00:52:42;-3275.90;77.70
46752;DHT22;32497;48.936;9.270;2024-01-16T00:57:43;-3275.90;77.90
46752;DHT22;32497;48.936;9.270;2024-01-16T01:02:46;-3276.00;77.30
46752;DHT22;32497;48.936;9.270;2024-01-16T01:07:47;-3275.90;78.30
46752;DHT22;32497;48.936;9.270;2024-01-16T01:12:48;-3275.70;78.60
46752;DHT22;32497;48.936;9.270;2024-01-16T01:17:51;-3275.80;78.00
46752;DHT22;32497;48.936;9.270;2024-01-16T01:22:52;-3275.60;78.50
46752;DHT22;32497;48.936;9.270;2024-01-16T01:27:53;-3275.40;78.90
46752;DHT22;32497;48.936;9.270;2024-01-16T01:32:56;-3275.40;79.20
46752;DHT22;32497;48.936;9.270;2024-01-16T01:37:57;-3275.40;79.10
46752;DHT22;32497;48.936;9.270;2024-01-16T01:42:58;-3275.50;78.50
46752;DHT22;32497;48.936;9.270;2024-01-16T01:48:16;-3275.60;78.30
46752;DHT22;32497;48.936;9.270;2024-01-16T01:53:17;-3275.70;79.10
46752;DHT22;32497;48.936;9.270;2024-01-16T01:58:18;-3275.70;79.30
46752;DHT22;32497;48.936;9.270;2024-01-16T02:03:21;-3275.80;78.70
46752;DHT22;32497;48.936;9.270;2024-01-16T02:08:24;-3275.80;78.30
46752;DHT22;32497;48.936;9.270;2024-01-16T02:13:25;-3275.80;78.60
46752;DHT22;32497;48.936;9.270;2024-01-16T02:18:28;-3275.70;78.40
46752;DHT22;32497;48.936;9.270;2024-01-16T02:23:30;-3275.70;78.90
46752;DHT22;32497;48.936;9.270;2024-01-16T02:28:32;-3275.70;78.40
46752;DHT22;32497;48.936;9.270;2024-01-16T02:33:33;-3275.60;78.40
46752;DHT22;32497;48.936;9.270;2024-01-16T02:38:35;-3275.50;78.80
46752;DHT22;32497;48.936;9.270;2024-01-16T02:43:36;-3275.30;79.50
46752;DHT22;32497;48.936;9.270;2024-01-16T02:48:37;-3275.10;80.30
46752;DHT22;32497;48.936;9.270;2024-01-16T02:53:40;-3275.00;80.80
46752;DHT22;32497;48.936;9.270;2024-01-16T02:58:41;-3275.00;81.00
46752;DHT22;32497;48.936;9.270;2024-01-16T03:03:42;-3275.00;80.90
46752;DHT22;32497;48.936;9.270;2024-01-16T03:08:44;-3275.00;81.50
46752;DHT22;32497;48.936;9.270;2024-01-16T03:13:46;-3275.00;81.40
46752;DHT22;32497;48.936;9.270;2024-01-16T03:18:47;-3275.00;81.40
46752;DHT22;32497;48.936;9.270;2024-01-16T03:23:49;-3275.00;81.20
46752;DHT22;32497;48.936;9.270;2024-01-16T03:28:50;-3275.00;81.00
46752;DHT22;32497;48.936;9.270;2024-01-16T03:33:51;-3274.90;81.50
46752;DHT22;32497;48.936;9.270;2024-01-16T03:38:54;-3274.70;82.00
46752;DHT22;32497;48.936;9.270;2024-01-16T03:43:55;-3274.90;81.00
46752;DHT22;32497;48.936;9.270;2024-01-16T03:48:56;-3275.00;81.20
46752;DHT22;32497;48.936;9.270;2024-01-16T03:53:58;-3274.80;81.10
46752;DHT22;32497;48.936;9.270;2024-01-16T03:58:59;-3274.60;81.60
46752;DHT22;32497;48.936;9.270;2024-01-16T04:04:00;-3274.40;81.80
46752;DHT22;32497;48.936;9.270;2024-01-16T04:09:03;-3274.20;82.30
46752;DHT22;32497;48.936;9.270;2024-01-16T04:14:04;-3274.10;82.60
46752;DHT22;32497;48.936;9.270;2024-01-16T04:19:05;-3273.90;82.60
46752;DHT22;32497;48.936;9.270;2024-01-16T04:24:08;-3273.60;83.30
46752;DHT22;32497;48.936;9.270;2024-01-16T04:29:09;-3273.60;83.90
46752;DHT22;32497;48.936;9.270;2024-01-16T04:34:10;-3273.60;84.00
46752;DHT22;32497;48.936;9.270;2024-01-16T04:39:13;-3273.60;83.70
46752;DHT22;32497;48.936;9.270;2024-01-16T04:44:14;-3273.30;83.80
46752;DHT22;32497;48.936;9.270;2024-01-16T04:49:15;-3273.20;84.80
46752;DHT22;32497;48.936;9.270;2024-01-16T04:54:17;-3273.40;85.00
46752;DHT22;32497;48.936;9.270;2024-01-16T04:59:21;-3273.50;84.00
46752;DHT22;32497;48.936;9.270;2024-01-16T05:04:22;-3273.40;84.00
46752;DHT22;32497;48.936;9.270;2024-01-16T05:09:24;-3273.10;84.20
46752;DHT22;32497;48.936;9.270;2024-01-16T05:14:25;-3273.00;84.50
46752;DHT22;32497;48.936;9.270;2024-01-16T05:19:26;-3272.80;84.90
46752;DHT22;32497;48.936;9.270;2024-01-16T05:24:29;-3272.70;85.30
46752;DHT22;32497;48.936;9.270;2024-01-16T05:29:30;-3272.90;85.70
46752;DHT22;32497;48.936;9.270;2024-01-16T05:34:31;-3273.00;85.40
46752;DHT22;32497;48.936;9.270;2024-01-16T05:39:34;-3273.00;84.90
46752;DHT22;32497;48.936;9.270;2024-01-16T05:44:35;-3272.90;85.10
46752;DHT22;32497;48.936;9.270;2024-01-16T05:49:36;-3272.70;85.20
46752;DHT22;32497;48.936;9.270;2024-01-16T05:54:38;-3272.80;85.20
46752;DHT22;32497;48.936;9.270;2024-01-16T05:59:39;-3272.80;85.00
46752;DHT22;32497;48.936;9.270;2024-01-16T06:04:41;-3272.80;85.00
46752;DHT22;32497;48.936;9.270;2024-01-16T06:09:43;-3272.90;84.90
46752;DHT22;32497;48.936;9.270;2024-01-16T06:14:45;-3272.90;85.10
46752;DHT22;32497;48.936;9.270;2024-01-16T06:19:46;-3273.10;84.70
46752;DHT22;32497;48.936;9.270;2024-01-16T06:24:48;-3273.20;84.50
46752;DHT22;32497;48.936;9.270;2024-01-16T06:29:49;-3273.30;84.50
46752;DHT22;32497;48.936;9.270;2024-01-16T06:34:50;-3273.30;84.40
46752;DHT22;32497;48.936;9.270;2024-01-16T06:39:53;-3273.30;84.40
46752;DHT22;32497;48.936;9.270;2024-01-16T06:44:54;-3273.40;83.90
46752;DHT22;32497;48.936;9.270;2024-01-16T06:49:55;-3273.50;83.90
46752;DHT22;32497;48.936;9.270;2024-01-16T06:54:58;-3273.50;83.60
46752;DHT22;32497;48.936;9.270;2024-01-16T06:59:59;-3273.60;83.50
46752;DHT22;32497;48.936;9.270;2024-01-16T07:05:00;-3273.60;83.30
46752;DHT22;32497;48.936;9.270;2024-01-16T07:10:03;-3273.50;83.30
46752;DHT22;32497;48.936;9.270;2024-01-16T07:15:06;-3273.50;83.30
46752;DHT22;32497;48.936;9.270;2024-01-16T07:20:08;-3273.50;83.40
46752;DHT22;32497;48.936;9.270;2024-01-16T07:25:10;-3273.50;83.50
46752;DHT22;32497;48.936;9.270;2024-01-16T07:30:12;-3273.60;83.50
46752;DHT22;32497;48.936;9.270;2024-01-16T07:35:13;-3273.60;83.30
46752;DHT22;32497;48.936;9.270;2024-01-16T07:40:16;-3273.70;83.00
46752;DHT22;32497;48.936;9.270;2024-01-16T07:45:17;-3273.80;83.10
46752;DHT22;32497;48.936;9.270;2024-01-16T07:50:18;-3273.90;82.90
46752;DHT22;32497;48.936;9.270;2024-01-16T07:55:21;-3274.00;82.10
46752;DHT22;32497;48.936;9.270;2024-01-16T08:00:22;-3274.10;82.00
46752;DHT22;32497;48.936;9.270;2024-01-16T08:05:23;-3274.20;81.00
46752;DHT22;32497;48.936;9.270;2024-01-16T08:10:26;-3274.30;80.80
46752;DHT22;32497;48.936;9.270;2024-01-16T08:15:27;-3274.50;79.90
46752;DHT22;32497;48.936;9.270;2024-01-16T08:20:28;-3274.60;78.90
46752;DHT22;32497;48.936;9.270;2024-01-16T08:25:30;-3274.80;78.80
46752;DHT22;32497;48.936;9.270;2024-01-16T08:30:31;-3275.00;77.70
46752;DHT22;32497;48.936;9.270;2024-01-16T08:35:32;-3275.10;76.90
46752;DHT22;32497;48.936;9.270;2024-01-16T08:40:35;-3275.30;76.00
46752;DHT22;32497;48.936;9.270;2024-01-16T08:45:36;-3275.40;75.30
46752;DHT22;32497;48.936;9.270;2024-01-16T08:50:37;-3275.70;75.30
46752;DHT22;32497;48.936;9.270;2024-01-16T08:55:39;-3276.00;74.50
46752;DHT22;32497;48.936;9.270;2024-01-16T09:00:41;-3276.30;73.90
46752;DHT22;32497;48.936;9.270;2024-01-16T09:05:42;-3276.40;72.80
46752;DHT22;32497;48.936;9.270;2024-01-16T09:10:44;-3276.60;71.90
46752;DHT22;32497;48.936;9.270;2024-01-16T09:15:45;0.00;71.50
46752;DHT22;32497;48.936;9.270;2024-01-16T09:20:47;0.20;70.50
46752;DHT22;32497;48.936;9.270;2024-01-16T09:25:49;0.40;70.30
46752;DHT22;32497;48.936;9.270;2024-01-16T09:30:50;0.60;69.70
46752;DHT22;32497;48.936;9.270;2024-01-16T09:35:51;1.10;68.10
46752;DHT22;32497;48.936;9.270;2024-01-16T09:40:54;1.40;68.30
46752;DHT22;32497;48.936;9.270;2024-01-16T09:45:56;1.40;66.00
46752;DHT22;32497;48.936;9.270;2024-01-16T09:50:57;1.50;66.60
46752;DHT22;32497;48.936;9.270;2024-01-16T09:56:02;1.20;65.70
46752;DHT22;32497;48.936;9.270;2024-01-16T10:01:05;1.10;65.40
46752;DHT22;32497;48.936;9.270;2024-01-16T10:06:07;1.70;65.40
46752;DHT22;32497;48.936;9.270;2024-01-16T10:11:09;2.20;64.60
46752;DHT22;32497;48.936;9.270;2024-01-16T10:16:10;2.20;62.70
46752;DHT22;32497;48.936;9.270;2024-01-16T10:21:20;2.10;63.60
46752;DHT22;32497;48.936;9.270;2024-01-16T10:26:22;1.40;63.50
46752;DHT22;32497;48.936;9.270;2024-01-16T10:31:29;1.00;65.50
46752;DHT22;32497;48.936;9.270;2024-01-16T10:36:30;1.30;65.50
46752;DHT22;32497;48.936;9.270;2024-01-16T10:41:33;1.60;64.20
46752;DHT22;32497;48.936;9.270;2024-01-16T10:46:35;1.80;63.30
46752;DHT22;32497;48.936;9.270;2024-01-16T10:51:36;1.60;63.20
46752;DHT22;32497;48.936;9.270;2024-01-16T10:56:44;1.60;64.30
46752;DHT22;32497;48.936;9.270;2024-01-16T11:01:48;1.60;63.60
46752;DHT22;32497;48.936;9.270;2024-01-16T11:06:52;1.80;62.10
46752;DHT22;32497;48.936;9.270;2024-01-16T11:11:55;2.30;63.90
46752;DHT22;32497;48.936;9.270;2024-01-16T11:16:58;3.10;61.30
46752;DHT22;32497;48.936;9.270;2024-01-16T11:22:00;3.70;59.50
46752;DHT22;32497;48.936;9.270;2024-01-16T11:27:04;3.80;58.50
46752;DHT22;32497;48.936;9.270;2024-01-16T11:32:05;3.60;59.10
46752;DHT22;32497;48.936;9.270;2024-01-16T11:42:25;3.60;58.50
46752;DHT22;32497;48.936;9.270;2024-01-16T11:47:26;3.60;57.10
46752;DHT22;32497;48.936;9.270;2024-01-16T11:52:40;3.20;57.90
46752;DHT22;32497;48.936;9.270;2024-01-16T11:57:56;3.60;58.00
46752;DHT22;32497;48.936;9.270;2024-01-16T12:03:04;3.80;56.60
46752;DHT22;32497;48.936;9.270;2024-01-16T12:08:06;3.90;56.40
46752;DHT22;32497;48.936;9.270;2024-01-16T12:13:12;4.10;54.90
46752;DHT22;32497;48.936;9.270;2024-01-16T12:18:18;4.40;54.30
46752;DHT22;32497;48.936;9.270;2024-01-16T12:23:19;4.20;53.20
46752;DHT22;32497;48.936;9.270;2024-01-16T12:28:22;4.10;53.90
46752;DHT22;32497;48.936;9.270;2024-01-16T12:33:23;4.20;55.30
46752;DHT22;32497;48.936;9.270;2024-01-16T12:38:24;4.40;54.70
46752;DHT22;32497;48.936;9.270;2024-01-16T12:43:26;4.50;55.90
46752;DHT22;32497;48.936;9.270;2024-01-16T12:48:28;4.60;55.10
46752;DHT22;32497;48.936;9.270;2024-01-16T12:53:29;4.10;56.10
46752;DHT22;32497;48.936;9.270;2024-01-16T12:58:35;4.20;53.40
46752;DHT22;32497;48.936;9.270;2024-01-16T13:03:37;4.50;53.70
46752;DHT22;32497;48.936;9.270;2024-01-16T13:08:38;4.90;52.30
46752;DHT22;32497;48.936;9.270;2024-01-16T13:13:40;5.00;52.60
46752;DHT22;32497;48.936;9.270;2024-01-16T13:18:41;6.00;52.80
46752;DHT22;32497;48.936;9.270;2024-01-16T13:23:42;8.10;45.90
46752;DHT22;32497;48.936;9.270;2024-01-16T13:28:45;10.60;39.10
46752;DHT22;32497;48.936;9.270;2024-01-16T13:33:46;11.50;36.70
46752;DHT22;32497;48.936;9.270;2024-01-16T13:38:47;10.50;38.40
46752;DHT22;32497;48.936;9.270;2024-01-16T13:43:50;8.40;42.00
46752;DHT22;32497;48.936;9.270;2024-01-16T13:48:51;8.60;43.10
46752;DHT22;32497;48.936;9.270;2024-01-16T13:53:52;10.30;39.60
46752;DHT22;32497;48.936;9.270;2024-01-16T13:58:54;11.10;36.60
46752;DHT22;32497;48.936;9.270;2024-01-16T14:03:55;11.70;32.60
46752;DHT22;32497;48.936;9.270;2024-01-16T14:08:56;12.60;34.40
46752;DHT22;32497;48.936;9.270;2024-01-16T14:13:59;14.30;31.80
46752;DHT22;32497;48.936;9.270;2024-01-16T14:19:00;14.50;30.30
46752;DHT22;32497;48.936;9.270;2024-01-16T14:24:01;13.60;31.50
46752;DHT22;32497;48.936;9.270;2024-01-16T14:29:03;13.20;32.40
46752;DHT22;32497;48.936;9.270;2024-01-16T14:34:04;12.80;33.00
46752;DHT22;32497;48.936;9.270;2024-01-16T14:39:05;13.00;32.80
46752;DHT22;32497;48.936;9.270;2024-01-16T14:44:09;12.60;31.90
46752;DHT22;32497;48.936;9.270;2024-01-16T14:49:10;10.60;35.20
46752;DHT22;32497;48.936;9.270;2024-01-16T14:54:11;6.90;42.40
46752;DHT22;32497;48.936;9.270;2024-01-16T14:59:14;4.70;48.00
46752;DHT22;32497;48.936;9.270;2024-01-16T15:04:15;3.20;52.80
46752;DHT22;32497;48.936;9.270;2024-01-16T15:09:16;2.30;55.60
46752;DHT22;32497;48.936;9.270;2024-01-16T15:14:18;1.80;57.60
46752;DHT22;32497;48.936;9.270;2024-01-16T15:19:19;1.40;58.50
46752;DHT22;32497;48.936;9.270;2024-01-16T15:24:21;0.90;60.70
46752;DHT22;32497;48.936;9.270;2024-01-16T15:29:23;0.60;62.60
46752;DHT22;32497;48.936;9.270;2024-01-16T15:34:25;0.30;64.20
46752;DHT22;32497;48.936;9.270;2024-01-16T15:39:26;0.10;64.80
46752;DHT22;32497;48.936;9.270;2024-01-16T15:44:28;-3276.70;67.10
46752;DHT22;32497;48.936;9.270;2024-01-16T15:49:31;-3276.30;67.40
46752;DHT22;32497;48.936;9.270;2024-01-16T15:54:32;-3276.10;69.30
46752;DHT22;32497;48.936;9.270;2024-01-16T15:59:35;-3276.00;69.00
46752;DHT22;32497;48.936;9.270;2024-01-16T16:04:36;-3275.80;69.00
46752;DHT22;32497;48.936;9.270;2024-01-16T16:09:37;-3275.70;69.00
46752;DHT22;32497;48.936;9.270;2024-01-16T16:14:39;-3275.60;69.70
46752;DHT22;32497;48.936;9.270;2024-01-16T16:19:40;-3275.40;69.80
46752;DHT22;32497;48.936;9.270;2024-01-16T16:24:42;-3275.30;71.90
46752;DHT22;32497;48.936;9.270;2024-01-16T16:29:44;-3275.00;73.00
46752;DHT22;32497;48.936;9.270;2024-01-16T16:34:46;-3274.90;73.60
46752;DHT22;32497;48.936;9.270;2024-01-16T16:39:48;-3274.70;73.70
46752;DHT22;32497;48.936;9.270;2024-01-16T16:44:50;-3274.80;74.10
46752;DHT22;32497;48.936;9.270;2024-01-16T16:49:51;-3274.80;74.00
46752;DHT22;32497;48.936;9.270;2024-01-16T16:54:52;-3275.00;73.40
46752;DHT22;32497;48.936;9.270;2024-01-16T16:59:55;-3275.10;72.50
46752;DHT22;32497;48.936;9.270;2024-01-16T17:04:56;-3275.10;72.90
46752;DHT22;32497;48.936;9.270;2024-01-16T17:09:57;-3275.00;72.40
46752;DHT22;32497;48.936;9.270;2024-01-16T17:14:59;-3275.00;72.30
46752;DHT22;32497;48.936;9.270;2024-01-16T17:20:01;-3274.70;73.20
46752;DHT22;32497;48.936;9.270;2024-01-16T17:25:02;-3274.30;74.50
46752;DHT22;32497;48.936;9.270;2024-01-16T17:30:06;-3273.90;76.50
46752;DHT22;32497;48.936;9.270;2024-01-16T17:35:07;-3273.50;77.60
46752;DHT22;32497;48.936;9.270;2024-01-16T17:40:09;-3273.30;78.20
46752;DHT22;32497;48.936;9.270;2024-01-16T17:45:12;-3273.30;78.80
46752;DHT22;32497;48.936;9.270;2024-01-16T17:50:13;-3273.50;77.80
46752;DHT22;32497;48.936;9.270;2024-01-16T17:55:15;-3273.70;77.20
46752;DHT22;32497;48.936;9.270;2024-01-16T18:00:18;-3274.00;75.30
46752;DHT22;32497;48.936;9.270;2024-01-16T18:05:19;-3274.10;75.40
46752;DHT22;32497;48.936;9.270;2024-01-16T18:10:20;-3274.20;75.10
46752;DHT22;32497;48.936;9.270;2024-01-16T18:15:23;-3274.10;75.00
46752;DHT22;32497;48.936;9.270;2024-01-16T18:20:24;-3274.10;75.50
46752;DHT22;32497;48.936;9.270;2024-01-16T18:25:25;-3274.10;75.90
46752;DHT22;32497;48.936;9.270;2024-01-16T18:30:28;-3274.10;76.20
46752;DHT22;32497;48.936;9.270;2024-01-16T18:35:29;-3274.00;76.50
46752;DHT22;32497;48.936;9.270;2024-01-16T18:40:30;-3273.90;76.60
46752;DHT22;32497;48.936;9.270;2024-01-16T18:45:32;-3273.70;77.20
46752;DHT22;32497;48.936;9.270;2024-01-16T18:50:33;-3273.60;77.80
46752;DHT22;32497;48.936;9.270;2024-01-16T18:55:35;-3273.50;77.30
46752;DHT22;32497;48.936;9.270;2024-01-16T19:00:37;-3273.50;77.20
46752;DHT22;32497;48.936;9.270;2024-01-16T19:05:38;-3273.50;77.80
46752;DHT22;32497;48.936;9.270;2024-01-16T19:10:40;-3273.30;78.80
46752;DHT22;32497;48.936;9.270;2024-01-16T19:15:42;-3273.10;79.70
46752;DHT22;32497;48.936;9.270;2024-01-16T19:20:43;-3272.90;80.00
46752;DHT22;32497;48.936;9.270;2024-01-16T19:25:44;-3272.80;80.30
46752;DHT22;32497;48.936;9.270;2024-01-16T19:30:47;-3272.70;80.30
46752;DHT22;32497;48.936;9.270;2024-01-16T19:35:48;-3272.70;80.20
46752;DHT22;32497;48.936;9.270;2024-01-16T19:40:49;-3272.80;79.10
46752;DHT22;32497;48.936;9.270;2024-01-16T19:45:51;-3273.00;78.20
46752;DHT22;32497;48.936;9.270;2024-01-16T19:50:53;-3273.10;77.50
46752;DHT22;32497;48.936;9.270;2024-01-16T19:55:54;-3273.00;77.80
46752;DHT22;32497;48.936;9.270;2024-01-16T20:00:56;-3272.90;78.20
46752;DHT22;32497;48.936;9.270;2024-01-16T20:05:57;-3272.90;78.10
46752;DHT22;32497;48.936;9.270;2024-01-16T20:10:58;-3273.00;79.10
46752;DHT22;32497;48.936;9.270;2024-01-16T20:16:01;-3272.90;81.30
46752;DHT22;32497;48.936;9.270;2024-01-16T20:21:02;-3272.70;82.70
46752;DHT22;32497;48.936;9.270;2024-01-16T20:26:03;-3272.50;83.50
46752;DHT22;32497;48.936;9.270;2024-01-16T20:31:06;-3272.30;84.10
46752;DHT22;32497;48.936;9.270;2024-01-16T20:36:07;-3272.30;84.50
46752;DHT22;32497;48.936;9.270;2024-01-16T20:41:08;-3272.50;83.70
46752;DHT22;32497;48.936;9.270;2024-01-16T20:46:11;-3272.50;83.30
46752;DHT22;32497;48.936;9.270;2024-01-16T20:51:12;-3272.40;83.40
46752;DHT22;32497;48.936;9.270;2024-01-16T20:56:13;-3272.40;83.70
46752;DHT22;32497;48.936;9.270;2024-01-16T21:01:15;-3272.30;83.30
46752;DHT22;32497;48.936;9.270;2024-01-16T21:06:16;-3272.20;83.40
46752;DHT22;32497;48.936;9.270;2024-01-16T21:11:17;-3272.00;83.70
46752;DHT22;32497;48.936;9.270;2024-01-16T21:16:20;-3271.80;84.00
46752;DHT22;32497;48.936;9.270;2024-01-16T21:21:24;-3271.70;84.20
46752;DHT22;32497;48.936;9.270;2024-01-16T21:26:26;-3271.50;84.40
46752;DHT22;32497;48.936;9.270;2024-01-16T21:31:28;-3271.60;85.00
46752;DHT22;32497;48.936;9.270;2024-01-16T21:36:29;-3271.90;84.90
46752;DHT22;32497;48.936;9.270;2024-01-16T21:41:30;-3272.00;84.10
46752;DHT22;32497;48.936;9.270;2024-01-16T21:46:33;-3271.90;84.20
46752;DHT22;32497;48.936;9.270;2024-01-16T21:51:34;-3271.80;84.50
46752;DHT22;32497;48.936;9.270;2024-01-16T21:56:35;-3271.70;84.20
46752;DHT22;32497;48.936;9.270;2024-01-16T22:01:37;-3271.60;85.00
46752;DHT22;32497;48.936;9.270;2024-01-16T22:06:38;-3271.70;85.00
46752;DHT22;32497;48.936;9.270;2024-01-16T22:11:39;-3271.60;84.90
46752;DHT22;32497;48.936;9.270;2024-01-16T22:16:42;-3271.60;85.10
46752;DHT22;32497;48.936;9.270;2024-01-16T22:21:43;-3271.70;85.20
46752;DHT22;32497;48.936;9.270;2024-01-16T22:26:44;-3271.80;84.70
46752;DHT22;32497;48.936;9.270;2024-01-16T22:31:47;-3271.90;84.40
46752;DHT22;32497;48.936;9.270;2024-01-16T22:36:48;-3272.00;84.30
46752;DHT22;32497;48.936;9.270;2024-01-16T22:41:49;-3271.90;83.90
46752;DHT22;32497;48.936;9.270;2024-01-16T22:46:52;-3271.80;84.10
46752;DHT22;32497;48.936;9.270;2024-01-16T22:51:53;-3271.70;84.20
46752;DHT22;32497;48.936;9.270;2024-01-16T22:56:54;-3271.60;84.40
46752;DHT22;32497;48.936;9.270;2024-01-16T23:01:56;-3271.60;84.50
46752;DHT22;32497;48.936;9.270;2024-01-16T23:06:57;-3271.70;84.80
46752;DHT22;32497;48.936;9.270;2024-01-16T23:11:59;-3271.70;84.60
46752;DHT22;32497;48.936;9.270;2024-01-16T23:17:01;-3271.80;84.80
46752;DHT22;32497;48.936;9.270;2024-01-16T23:22:02;-3271.80;85.00
46752;DHT22;32497;48.936;9.270;2024-01-16T23:27:04;-3271.90;84.80
46752;DHT22;32497;48.936;9.270;2024-01-16T23:32:06;-3271.80;84.60
46752;DHT22;32497;48.936;9.270;2024-01-16T23:37:07;-3271.90;84.60
46752;DHT22;32497;48.936;9.270;2024-01-16T23:42:09;-3271.90;84.70
46752;DHT22;32497;48.936;9.270;2024-01-16T23:47:11;-3272.00;85.00
46752;DHT22;32497;48.936;9.270;2024-01-16T23:52:13;-3272.00;84.90
46752;DHT22;32497;48.936;9.270;2024-01-16T23:57:14;-3272.10;85.40
